createdAt,value
2019-03-02T00:00:26.340Z,5.00
2019-03-02T00:01:26.252Z,5.50
2019-03-02T00:02:26.166Z,5.60
2019-03-02T00:03:26.091Z,4.90
2019-03-02T00:04:26.004Z,4.90
2019-03-02T00:05:25.924Z,5.00
2019-03-02T00:06:25.827Z,5.10
2019-03-02T00:07:25.743Z,5.20
2019-03-02T00:08:26.141Z,5.00
2019-03-02T00:09:25.583Z,5.10
2019-03-02T00:10:25.496Z,4.70
2019-03-02T00:11:25.403Z,5.30
2019-03-02T00:12:28.534Z,5.20
2019-03-02T00:13:26.717Z,5.80
2019-03-02T00:14:25.142Z,5.00
2019-03-02T00:15:26.903Z,5.30
2019-03-02T00:16:24.979Z,5.40
2019-03-02T00:17:24.893Z,5.70
2019-03-02T00:18:25.973Z,5.40
2019-03-02T00:19:24.718Z,5.20
2019-03-02T00:20:24.630Z,5.60
2019-03-02T00:21:27.619Z,5.40
2019-03-02T00:22:24.468Z,5.20
2019-03-02T00:23:24.380Z,5.60
2019-03-02T00:24:24.293Z,5.40
2019-03-02T00:25:24.205Z,5.90
2019-03-02T00:26:24.123Z,5.90
2019-03-02T00:27:24.044Z,5.30
2019-03-02T00:28:23.955Z,5.60
2019-03-02T00:29:23.869Z,5.30
2019-03-02T00:30:23.780Z,5.20
2019-03-02T00:31:23.694Z,5.50
2019-03-02T00:32:23.607Z,5.40
2019-03-02T00:33:23.530Z,5.60
2019-03-02T00:34:23.444Z,5.10
2019-03-02T00:35:23.356Z,6.00
2019-03-02T00:36:23.269Z,5.60
2019-03-02T00:37:23.182Z,5.80
2019-03-02T00:38:23.094Z,5.70
2019-03-02T00:39:23.019Z,5.40
2019-03-02T00:40:22.931Z,5.70
2019-03-02T00:41:22.845Z,5.90
2019-03-02T00:42:22.759Z,5.60
2019-03-02T00:43:23.775Z,6.00
2019-03-02T00:44:22.583Z,5.70
2019-03-02T00:45:22.511Z,5.40
2019-03-02T00:46:23.923Z,6.10
2019-03-02T00:47:22.333Z,5.80
2019-03-02T00:48:22.245Z,5.70
2019-03-02T00:49:22.908Z,5.50
2019-03-02T00:50:22.082Z,5.80
2019-03-02T00:51:21.995Z,5.80
2019-03-02T00:52:23.461Z,6.00
2019-03-02T00:53:21.820Z,6.00
2019-03-02T00:54:21.733Z,5.60
2019-03-02T00:55:21.646Z,5.90
2019-03-02T00:56:21.571Z,5.90
2019-03-02T00:57:21.483Z,5.60
2019-03-02T00:58:21.399Z,6.10
2019-03-02T00:59:21.312Z,5.70
2019-03-02T01:00:21.222Z,6.10
2019-03-02T01:01:21.134Z,5.80
2019-03-02T01:02:21.059Z,6.10
2019-03-02T01:03:20.972Z,6.10
2019-03-02T01:04:22.824Z,6.00
2019-03-02T01:05:20.801Z,5.80
2019-03-02T01:06:20.709Z,6.70
2019-03-02T01:07:20.802Z,5.60
2019-03-02T01:08:20.548Z,5.80
2019-03-02T01:09:20.460Z,6.20
2019-03-02T01:10:22.608Z,6.20
2019-03-02T01:11:20.284Z,6.30
2019-03-02T01:12:20.199Z,6.20
2019-03-02T01:13:22.955Z,5.70
2019-03-02T01:14:20.035Z,5.80
2019-03-02T01:15:19.951Z,6.00
2019-03-02T01:16:19.937Z,5.80
2019-03-02T01:17:19.774Z,6.10
2019-03-02T01:18:21.216Z,5.90
2019-03-02T01:19:19.610Z,6.70
2019-03-02T01:20:19.524Z,6.20
2019-03-02T01:21:19.440Z,6.40
2019-03-02T01:22:19.350Z,6.40
2019-03-02T01:23:19.273Z,6.00
2019-03-02T01:24:19.182Z,6.20
2019-03-02T01:25:19.100Z,6.40
2019-03-02T01:26:20.631Z,6.20
2019-03-02T01:27:18.925Z,6.00
2019-03-02T01:28:19.090Z,6.00
2019-03-02T01:29:19.048Z,6.30
2019-03-02T01:30:18.663Z,6.30
2019-03-02T01:31:18.599Z,6.30
2019-03-02T01:32:18.500Z,7.00
2019-03-02T01:33:18.412Z,6.10
2019-03-02T01:34:18.325Z,6.20
2019-03-02T01:35:20.138Z,6.30
2019-03-02T01:36:18.153Z,6.40
2019-03-02T01:37:18.075Z,6.10
2019-03-02T01:38:18.699Z,6.50
2019-03-02T01:39:17.901Z,6.40
2019-03-02T01:40:17.813Z,7.00
2019-03-02T01:41:18.863Z,6.40
2019-03-02T01:42:17.652Z,6.60
2019-03-02T01:43:17.563Z,6.60
2019-03-02T01:44:17.548Z,6.50
2019-03-02T01:45:17.389Z,6.40
2019-03-02T01:46:17.301Z,6.20
2019-03-02T01:47:17.217Z,6.50
2019-03-02T01:48:17.129Z,6.40
2019-03-02T01:49:17.052Z,6.20
2019-03-02T01:50:16.965Z,7.40
2019-03-02T01:51:19.771Z,7.20
2019-03-02T01:52:16.789Z,6.00
2019-03-02T01:53:16.704Z,6.30
2019-03-02T01:54:17.939Z,6.40
2019-03-02T01:55:16.543Z,6.60
2019-03-02T01:56:16.453Z,6.40
2019-03-02T01:57:17.272Z,6.80
2019-03-02T01:58:16.278Z,6.70
2019-03-02T01:59:16.190Z,6.70
2019-03-02T02:00:16.105Z,6.50
2019-03-02T02:01:16.028Z,6.70
2019-03-02T02:02:15.940Z,6.60
2019-03-02T02:03:15.874Z,6.80
2019-03-02T02:04:18.975Z,6.10
2019-03-02T02:05:15.679Z,6.80
2019-03-02T02:06:15.595Z,7.00
2019-03-02T02:07:18.025Z,7.40
2019-03-02T02:08:15.431Z,6.60
2019-03-02T02:09:15.341Z,6.90
2019-03-02T02:10:15.255Z,6.70
2019-03-02T02:11:18.089Z,7.30
2019-03-02T02:12:15.091Z,7.20
2019-03-02T02:13:15.005Z,6.90
2019-03-02T02:14:18.353Z,7.50
2019-03-02T02:15:14.833Z,6.90
2019-03-02T02:16:14.743Z,6.90
2019-03-02T02:17:17.496Z,6.80
2019-03-02T02:18:14.869Z,7.10
2019-03-02T02:19:14.492Z,7.00
2019-03-02T02:20:14.684Z,6.60
2019-03-02T02:21:14.335Z,6.80
2019-03-02T02:22:14.230Z,7.10
2019-03-02T02:23:14.193Z,6.80
2019-03-02T02:24:14.068Z,7.00
2019-03-02T02:25:13.984Z,7.00
2019-03-02T02:26:13.892Z,6.90
2019-03-02T02:27:13.811Z,6.90
2019-03-02T02:28:13.734Z,7.30
2019-03-02T02:29:13.631Z,6.80
2019-03-02T02:30:18.623Z,7.00
2019-03-02T02:31:13.481Z,7.20
2019-03-02T02:32:13.383Z,7.20
2019-03-02T02:33:13.302Z,6.60
2019-03-02T02:34:21.670Z,7.30
2019-03-02T02:35:13.122Z,7.00
2019-03-02T02:36:14.127Z,7.30
2019-03-02T02:37:12.959Z,6.90
2019-03-02T02:38:16.061Z,7.40
2019-03-02T02:39:12.784Z,6.90
2019-03-02T02:40:13.776Z,6.70
2019-03-02T02:41:17.605Z,6.80
2019-03-02T02:42:12.520Z,7.40
2019-03-02T02:43:16.650Z,6.80
2019-03-02T02:44:12.359Z,7.00
2019-03-02T02:45:15.216Z,7.00
2019-03-02T02:46:12.185Z,7.10
2019-03-02T02:47:12.924Z,6.80
2019-03-02T02:48:12.022Z,7.20
2019-03-02T02:49:11.945Z,7.20
2019-03-02T02:50:11.847Z,7.40
2019-03-02T02:51:12.401Z,7.10
2019-03-02T02:52:11.671Z,7.50
2019-03-02T02:53:11.585Z,7.50
2019-03-02T02:54:11.502Z,7.20
2019-03-02T02:55:11.410Z,8.10
2019-03-02T02:56:14.488Z,7.70
2019-03-02T02:57:11.252Z,7.30
2019-03-02T02:58:12.507Z,7.50
2019-03-02T02:59:11.071Z,8.10
2019-03-02T03:00:12.142Z,7.80
2019-03-02T03:01:10.911Z,7.70
2019-03-02T03:02:12.013Z,7.80
2019-03-02T03:03:10.986Z,7.60
2019-03-02T03:04:10.647Z,7.90
2019-03-02T03:05:15.227Z,7.80
2019-03-02T03:06:10.473Z,7.80
2019-03-02T03:07:12.288Z,8.00
2019-03-02T03:08:10.297Z,8.00
2019-03-02T03:09:11.491Z,7.50
2019-03-02T03:10:10.137Z,8.20
2019-03-02T03:11:10.058Z,7.40
2019-03-02T03:12:09.963Z,8.00
2019-03-02T03:13:09.873Z,8.00
2019-03-02T03:14:09.799Z,7.70
2019-03-02T03:15:09.698Z,7.40
2019-03-02T03:16:11.547Z,7.90
2019-03-02T03:17:09.536Z,7.60
2019-03-02T03:18:12.221Z,7.60
2019-03-02T03:19:09.363Z,7.50
2019-03-02T03:20:10.542Z,7.90
2019-03-02T03:21:09.198Z,7.90
2019-03-02T03:22:09.278Z,8.40
2019-03-02T03:23:09.037Z,8.60
2019-03-02T03:24:08.941Z,7.70
2019-03-02T03:25:08.851Z,7.70
2019-03-02T03:26:08.769Z,7.70
2019-03-02T03:27:09.096Z,8.10
2019-03-02T03:28:08.608Z,8.00
2019-03-02T03:29:09.730Z,7.40
2019-03-02T03:30:08.436Z,7.70
2019-03-02T03:31:22.170Z,7.90
2019-03-02T03:32:11.762Z,7.90
2019-03-02T03:33:08.164Z,7.20
2019-03-02T03:34:08.106Z,7.60
2019-03-02T03:35:15.443Z,7.00
2019-03-02T03:36:07.902Z,7.40
2019-03-02T03:37:08.528Z,7.50
2019-03-02T03:38:07.992Z,8.20
2019-03-02T03:39:09.116Z,7.60
2019-03-02T03:40:07.568Z,7.40
2019-03-02T03:41:07.496Z,7.50
2019-03-02T03:42:07.391Z,7.40
2019-03-02T03:43:07.301Z,7.50
2019-03-02T03:44:07.221Z,8.00
2019-03-02T03:45:07.152Z,7.60
2019-03-02T03:46:07.052Z,7.70
2019-03-02T03:47:06.973Z,7.80
2019-03-02T03:48:06.878Z,7.50
2019-03-02T03:49:06.791Z,7.80
2019-03-02T03:50:09.141Z,7.80
2019-03-02T03:51:06.647Z,7.70
2019-03-02T03:52:09.040Z,7.70
2019-03-02T03:53:06.454Z,7.50
2019-03-02T03:54:06.905Z,7.60
2019-03-02T03:55:06.281Z,7.90
2019-03-02T03:56:06.192Z,8.10
2019-03-02T03:57:06.122Z,8.00
2019-03-02T03:58:06.016Z,7.40
2019-03-02T03:59:05.929Z,8.10
2019-03-02T04:00:05.864Z,8.10
2019-03-02T04:01:05.766Z,7.50
2019-03-02T04:02:05.680Z,7.70
2019-03-02T04:03:09.047Z,7.90
2019-03-02T04:04:05.506Z,7.80
2019-03-02T04:05:08.614Z,8.10
2019-03-02T04:06:05.330Z,8.50
2019-03-02T04:07:06.368Z,8.00
2019-03-02T04:08:05.169Z,8.00
2019-03-02T04:09:08.236Z,8.40
2019-03-02T04:10:04.994Z,8.50
2019-03-02T04:11:05.854Z,8.10
2019-03-02T04:12:06.509Z,8.30
2019-03-02T04:13:06.292Z,8.20
2019-03-02T04:14:04.643Z,8.20
2019-03-02T04:15:04.569Z,8.10
2019-03-02T04:16:04.489Z,8.00
2019-03-02T04:17:04.398Z,8.30
2019-03-02T04:18:04.311Z,8.10
2019-03-02T04:19:04.219Z,8.40
2019-03-02T04:20:08.008Z,7.90
2019-03-02T04:21:04.044Z,8.20
2019-03-02T04:22:06.514Z,8.00
2019-03-02T04:23:03.870Z,8.10
2019-03-02T04:24:03.789Z,8.90
2019-03-02T04:25:03.707Z,8.30
2019-03-02T04:26:03.623Z,8.20
2019-03-02T04:27:03.540Z,8.40
2019-03-02T04:28:03.449Z,8.70
2019-03-02T04:29:09.041Z,8.00
2019-03-02T04:30:03.270Z,8.50
2019-03-02T04:31:04.603Z,8.40
2019-03-02T04:32:03.100Z,8.30
2019-03-02T04:33:05.998Z,8.40
2019-03-02T04:34:02.932Z,8.50
2019-03-02T04:35:02.845Z,8.20
2019-03-02T04:36:09.658Z,9.10
2019-03-02T04:37:02.671Z,8.10
2019-03-02T04:38:02.846Z,8.70
2019-03-02T04:39:02.498Z,8.40
2019-03-02T04:40:02.416Z,8.40
2019-03-02T04:41:04.130Z,8.40
2019-03-02T04:42:02.246Z,9.10
2019-03-02T04:43:02.158Z,9.10
2019-03-02T04:44:02.071Z,8.80
2019-03-02T04:45:04.896Z,8.40
2019-03-02T04:46:01.897Z,8.30
2019-03-02T04:47:01.812Z,9.00
2019-03-02T04:48:03.328Z,8.70
2019-03-02T04:49:01.634Z,8.90
2019-03-02T04:50:01.558Z,8.90
2019-03-02T04:51:02.605Z,9.10
2019-03-02T04:52:01.396Z,8.40
2019-03-02T04:53:01.297Z,8.60
2019-03-02T04:54:01.755Z,8.40
2019-03-02T04:55:01.122Z,8.40
2019-03-02T04:56:01.034Z,9.40
2019-03-02T04:57:00.948Z,8.80
2019-03-02T04:58:00.861Z,8.70
2019-03-02T04:59:00.785Z,9.10
2019-03-02T05:00:00.698Z,8.60
2019-03-02T05:01:03.870Z,8.10
2019-03-02T05:02:00.524Z,8.80
2019-03-02T05:03:00.450Z,8.40
2019-03-02T05:04:00.348Z,8.60
2019-03-02T05:05:00.335Z,8.90
2019-03-02T05:06:00.176Z,9.10
2019-03-02T05:07:00.099Z,8.70
2019-03-02T05:08:01.858Z,9.50
2019-03-02T05:08:59.924Z,8.90
2019-03-02T05:09:59.837Z,8.30
2019-03-02T05:11:00.645Z,8.70
2019-03-02T05:11:59.661Z,9.20
2019-03-02T05:12:59.576Z,8.60
2019-03-02T05:14:00.803Z,8.50
2019-03-02T05:14:59.411Z,9.10
2019-03-02T05:15:59.325Z,8.90
2019-03-02T05:16:59.238Z,9.00
2019-03-02T05:17:59.153Z,9.20
2019-03-02T05:18:59.077Z,9.50
2019-03-02T05:20:00.830Z,8.90
2019-03-02T05:20:58.887Z,9.50
2019-03-02T05:21:58.812Z,9.40
2019-03-02T05:22:58.884Z,8.90
2019-03-02T05:23:58.640Z,8.80
2019-03-02T05:24:58.551Z,9.30
2019-03-02T05:25:58.463Z,9.80
2019-03-02T05:26:58.376Z,9.40
2019-03-02T05:27:58.289Z,9.30
2019-03-02T05:28:58.205Z,9.80
2019-03-02T05:29:58.126Z,9.10
2019-03-02T05:30:58.039Z,9.70
2019-03-02T05:31:57.952Z,9.70
2019-03-02T05:32:57.864Z,10.60
2019-03-02T05:34:00.774Z,9.40
2019-03-02T05:34:57.688Z,9.60
2019-03-02T05:35:57.614Z,10.10
2019-03-02T05:36:59.742Z,9.60
2019-03-02T05:37:57.438Z,10.30
2019-03-02T05:38:57.352Z,9.20
2019-03-02T05:39:57.264Z,9.70
2019-03-02T05:40:59.431Z,9.10
2019-03-02T05:41:57.093Z,9.40
2019-03-02T05:42:57.269Z,10.10
2019-03-02T05:43:56.927Z,10.10
2019-03-02T05:44:56.840Z,9.90
2019-03-02T05:45:56.754Z,10.50
2019-03-02T05:46:57.837Z,9.90
2019-03-02T05:47:56.878Z,9.80
2019-03-02T05:48:56.491Z,9.50
2019-03-02T05:49:56.417Z,9.70
2019-03-02T05:50:56.328Z,9.60
2019-03-02T05:51:56.241Z,9.90
2019-03-02T05:52:56.155Z,10.60
2019-03-02T05:53:56.065Z,10.40
2019-03-02T05:54:55.979Z,9.90
2019-03-02T05:55:55.893Z,9.70
2019-03-02T05:56:55.817Z,9.90
2019-03-02T05:57:55.979Z,9.80
2019-03-02T05:58:55.642Z,10.30
2019-03-02T05:59:58.600Z,9.80
2019-03-02T06:00:55.466Z,9.90
2019-03-02T06:01:55.381Z,10.20
2019-03-02T06:02:55.304Z,10.50
2019-03-02T06:03:55.217Z,10.00
2019-03-02T06:04:57.009Z,10.30
2019-03-02T06:05:55.055Z,10.10
2019-03-02T06:06:55.458Z,10.30
2019-03-02T06:07:57.596Z,10.10
2019-03-02T06:08:54.780Z,10.40
2019-03-02T06:09:54.705Z,10.20
2019-03-02T06:10:57.977Z,9.70
2019-03-02T06:11:54.531Z,10.10
2019-03-02T06:12:54.443Z,10.30
2019-03-02T06:13:54.356Z,10.60
2019-03-02T06:14:54.268Z,10.50
2019-03-02T06:15:54.194Z,10.00
2019-03-02T06:16:57.290Z,11.00
2019-03-02T06:17:54.018Z,11.00
2019-03-02T06:18:53.936Z,10.80
2019-03-02T06:19:55.811Z,10.60
2019-03-02T06:20:53.757Z,10.60
2019-03-02T06:21:53.670Z,11.20
2019-03-02T06:22:55.465Z,9.80
2019-03-02T06:23:53.509Z,11.10
2019-03-02T06:24:53.419Z,10.60
2019-03-02T06:25:55.114Z,10.50
2019-03-02T06:26:53.244Z,11.00
2019-03-02T06:27:53.157Z,10.90
2019-03-02T06:28:54.621Z,10.90
2019-03-02T06:29:52.995Z,10.60
2019-03-02T06:30:52.908Z,11.00
2019-03-02T06:31:54.012Z,10.90
2019-03-02T06:32:52.734Z,10.50
2019-03-02T06:33:52.645Z,11.20
2019-03-02T06:34:55.776Z,11.20
2019-03-02T06:35:52.484Z,11.10
2019-03-02T06:36:52.396Z,10.60
2019-03-02T06:37:53.011Z,10.70
2019-03-02T06:38:52.220Z,11.30
2019-03-02T06:39:52.135Z,10.50
2019-03-02T06:40:54.902Z,11.60
2019-03-02T06:41:51.971Z,11.10
2019-03-02T06:42:53.864Z,10.80
2019-03-02T06:43:54.996Z,11.20
2019-03-02T06:44:51.709Z,10.90
2019-03-02T06:45:51.621Z,11.60
2019-03-02T06:46:54.629Z,11.60
2019-03-02T06:47:51.465Z,11.00
2019-03-02T06:48:51.371Z,10.80
2019-03-02T06:49:53.168Z,10.70
2019-03-02T06:50:51.198Z,11.20
2019-03-02T06:51:51.110Z,10.90
2019-03-02T06:52:51.022Z,10.70
2019-03-02T06:53:50.936Z,11.70
2019-03-02T06:54:50.860Z,11.50
2019-03-02T06:55:50.774Z,11.40
2019-03-02T06:56:57.515Z,12.00
2019-03-02T06:57:51.548Z,11.70
2019-03-02T06:58:50.515Z,11.70
2019-03-02T06:59:50.425Z,11.10
2019-03-02T07:00:50.349Z,11.90
2019-03-02T07:01:50.261Z,11.50
2019-03-02T07:02:50.193Z,11.90
2019-03-02T07:03:50.087Z,11.70
2019-03-02T07:04:49.999Z,11.70
2019-03-02T07:05:49.913Z,11.10
2019-03-02T07:06:49.839Z,11.70
2019-03-02T07:07:49.748Z,11.60
2019-03-02T07:08:49.663Z,11.40
2019-03-02T07:09:49.574Z,11.20
2019-03-02T07:10:49.489Z,11.70
2019-03-02T07:11:49.400Z,11.80
2019-03-02T07:12:49.324Z,11.70
2019-03-02T07:13:49.237Z,12.00
2019-03-02T07:14:49.155Z,11.60
2019-03-02T07:15:49.063Z,12.10
2019-03-02T07:16:51.979Z,12.60
2019-03-02T07:17:48.906Z,12.00
2019-03-02T07:18:48.813Z,12.30
2019-03-02T07:19:51.575Z,12.40
2019-03-02T07:20:48.638Z,12.20
2019-03-02T07:21:48.552Z,12.00
2019-03-02T07:22:48.758Z,11.90
2019-03-02T07:23:48.377Z,12.50
2019-03-02T07:24:48.305Z,11.70
2019-03-02T07:25:48.214Z,12.60
2019-03-02T07:26:48.128Z,12.40
2019-03-02T07:27:48.038Z,12.90
2019-03-02T07:28:47.953Z,13.10
2019-03-02T07:29:49.867Z,12.80
2019-03-02T07:30:47.789Z,12.40
2019-03-02T07:31:47.701Z,12.60
2019-03-02T07:32:47.615Z,12.60
2019-03-02T07:33:47.526Z,12.70
2019-03-02T07:34:47.440Z,12.50
2019-03-02T07:35:47.369Z,12.30
2019-03-02T07:36:47.277Z,13.00
2019-03-02T07:37:47.191Z,13.00
2019-03-02T07:38:47.103Z,12.30
2019-03-02T07:39:47.021Z,12.70
2019-03-02T07:40:47.139Z,13.20
2019-03-02T07:41:46.857Z,12.60
2019-03-02T07:42:46.766Z,13.10
2019-03-02T07:43:47.593Z,12.30
2019-03-02T07:44:46.591Z,13.00
2019-03-02T07:45:46.503Z,12.70
2019-03-02T07:46:47.894Z,12.90
2019-03-02T07:47:46.342Z,12.90
2019-03-02T07:48:46.254Z,12.10
2019-03-02T07:49:49.609Z,13.00
2019-03-02T07:50:46.080Z,12.30
2019-03-02T07:51:46.017Z,12.00
2019-03-02T07:52:45.919Z,12.70
2019-03-02T07:53:45.829Z,13.00
2019-03-02T07:54:56.026Z,12.40
2019-03-02T07:55:45.656Z,12.10
2019-03-02T07:56:45.580Z,12.50
2019-03-02T07:57:45.493Z,11.90
2019-03-02T07:58:45.417Z,12.90
2019-03-02T07:59:45.318Z,12.80
2019-03-02T08:00:45.231Z,11.60
2019-03-02T08:01:45.145Z,12.20
2019-03-02T08:02:45.068Z,11.90
2019-03-02T08:03:44.979Z,12.30
2019-03-02T08:04:44.893Z,11.50
2019-03-02T08:05:46.927Z,12.30
2019-03-02T08:06:44.718Z,12.30
2019-03-02T08:07:44.643Z,11.60
2019-03-02T08:08:45.823Z,12.90
2019-03-02T08:09:44.471Z,12.40
2019-03-02T08:10:44.381Z,11.70
2019-03-02T08:11:45.506Z,12.10
2019-03-02T08:12:44.219Z,12.00
2019-03-02T08:13:44.131Z,12.00
2019-03-02T08:14:44.439Z,12.10
2019-03-02T08:15:43.970Z,11.60
2019-03-02T08:16:43.869Z,11.70
2019-03-02T08:17:45.647Z,10.90
2019-03-02T08:18:43.721Z,11.60
2019-03-02T08:19:44.714Z,11.50
2019-03-02T08:20:43.532Z,12.30
2019-03-02T08:21:43.445Z,12.30
2019-03-02T08:22:46.279Z,11.20
2019-03-02T08:23:43.284Z,10.80
2019-03-02T08:24:43.780Z,11.50
2019-03-02T08:25:43.108Z,11.00
2019-03-02T08:26:43.033Z,11.00
2019-03-02T08:27:42.947Z,10.80
2019-03-02T08:28:45.853Z,11.50
2019-03-02T08:29:42.773Z,10.00
2019-03-02T08:30:42.695Z,10.40
2019-03-02T08:31:45.637Z,10.50
2019-03-02T08:32:42.521Z,10.10
2019-03-02T08:33:45.835Z,10.40
2019-03-02T08:34:42.870Z,10.30
2019-03-02T08:35:42.758Z,10.70
2019-03-02T08:36:42.184Z,10.60
2019-03-02T08:37:42.097Z,9.80
2019-03-02T08:38:42.009Z,9.70
2019-03-02T08:39:42.751Z,10.00
2019-03-02T08:40:43.766Z,10.30
2019-03-02T08:41:41.759Z,10.20
2019-03-02T08:42:41.676Z,10.10
2019-03-02T08:43:41.586Z,10.00
2019-03-02T08:44:41.500Z,10.00
2019-03-02T08:45:41.422Z,9.80
2019-03-02T08:46:41.335Z,10.40
2019-03-02T08:47:41.249Z,10.40
2019-03-02T08:48:41.159Z,9.30
2019-03-02T08:49:41.883Z,9.90
2019-03-02T08:50:40.999Z,9.30
2019-03-02T08:51:40.916Z,9.50
2019-03-02T08:52:40.824Z,9.70
2019-03-02T08:53:40.736Z,9.90
2019-03-02T08:54:40.666Z,9.30
2019-03-02T08:55:40.575Z,9.40
2019-03-02T08:56:43.792Z,10.10
2019-03-02T08:57:40.400Z,9.40
2019-03-02T08:58:40.312Z,10.20
2019-03-02T08:59:40.239Z,9.50
2019-03-02T09:00:42.391Z,9.00
2019-03-02T09:01:40.062Z,9.20
2019-03-02T09:02:39.979Z,9.40
2019-03-02T09:03:39.899Z,9.10
2019-03-02T09:04:39.811Z,10.30
2019-03-02T09:05:44.307Z,10.00
2019-03-02T09:06:39.651Z,9.30
2019-03-02T09:07:39.550Z,9.50
2019-03-02T09:08:39.477Z,9.90
2019-03-02T09:09:39.387Z,9.70
2019-03-02T09:10:39.300Z,9.10
2019-03-02T09:11:40.998Z,9.20
2019-03-02T09:12:39.137Z,9.20
2019-03-02T09:13:39.051Z,9.20
2019-03-02T09:14:38.963Z,9.70
2019-03-02T09:15:38.879Z,9.30
2019-03-02T09:16:41.549Z,9.80
2019-03-02T09:17:39.013Z,10.00
2019-03-02T09:18:45.375Z,9.70
2019-03-02T09:19:38.539Z,9.50
2019-03-02T09:20:38.451Z,9.90
2019-03-02T09:21:39.405Z,9.80
2019-03-02T09:22:38.290Z,9.40
2019-03-02T09:23:38.202Z,9.30
2019-03-02T09:24:38.114Z,8.90
2019-03-02T09:25:38.040Z,9.20
2019-03-02T09:26:37.954Z,9.00
2019-03-02T09:27:37.877Z,8.70
2019-03-02T09:28:37.778Z,8.20
2019-03-02T09:29:37.690Z,9.00
2019-03-02T09:30:37.614Z,8.60
2019-03-02T09:31:38.456Z,8.80
2019-03-02T09:32:37.441Z,8.90
2019-03-02T09:33:37.354Z,8.80
2019-03-02T09:34:40.340Z,8.50
2019-03-02T09:35:37.190Z,9.10
2019-03-02T09:36:37.102Z,8.80
2019-03-02T09:37:37.316Z,8.70
2019-03-02T09:38:36.940Z,9.60
2019-03-02T09:39:37.529Z,9.10
2019-03-02T09:40:36.766Z,9.00
2019-03-02T09:41:36.679Z,9.40
2019-03-02T09:42:40.217Z,8.80
2019-03-02T09:43:36.529Z,8.60
2019-03-02T09:44:37.032Z,9.40
2019-03-02T09:45:36.343Z,8.70
2019-03-02T09:46:36.267Z,9.30
2019-03-02T09:47:36.180Z,8.70
2019-03-02T09:48:36.091Z,9.30
2019-03-02T09:49:37.387Z,9.30
2019-03-02T09:50:35.931Z,9.40
2019-03-02T09:51:35.842Z,9.10
2019-03-02T09:52:35.756Z,8.80
2019-03-02T09:53:35.667Z,8.80
2019-03-02T09:54:35.593Z,9.20
2019-03-02T09:55:35.505Z,9.10
2019-03-02T09:56:35.418Z,9.90
2019-03-02T09:57:35.332Z,9.20
2019-03-02T09:58:35.256Z,9.20
2019-03-02T09:59:35.181Z,8.90
2019-03-02T10:00:35.994Z,9.00
2019-03-02T10:01:35.711Z,9.40
2019-03-02T10:02:34.918Z,9.10
2019-03-02T10:03:34.835Z,9.20
2019-03-02T10:04:35.907Z,9.20
2019-03-02T10:05:34.657Z,9.50
2019-03-02T10:06:34.583Z,9.20
2019-03-02T10:07:37.595Z,9.90
2019-03-02T10:08:34.419Z,9.30
2019-03-02T10:09:34.323Z,8.80
2019-03-02T10:10:34.257Z,9.90
2019-03-02T10:11:34.158Z,8.50
2019-03-02T10:12:34.069Z,9.00
2019-03-02T10:13:33.995Z,9.80
2019-03-02T10:14:35.092Z,9.00
2019-03-02T10:15:33.819Z,8.60
2019-03-02T10:16:33.734Z,9.00
2019-03-02T10:17:34.943Z,8.80
2019-03-02T10:18:33.570Z,8.80
2019-03-02T10:19:33.482Z,9.10
2019-03-02T10:20:33.396Z,8.90
2019-03-02T10:21:33.321Z,9.80
2019-03-02T10:22:35.198Z,9.60
2019-03-02T10:23:33.147Z,9.10
2019-03-02T10:24:33.059Z,8.70
2019-03-02T10:25:33.060Z,9.20
2019-03-02T10:26:32.896Z,8.80
2019-03-02T10:27:32.810Z,8.90
2019-03-02T10:28:34.096Z,9.30
2019-03-02T10:29:32.674Z,9.00
2019-03-02T10:30:32.559Z,8.50
2019-03-02T10:31:32.471Z,8.70
2019-03-02T10:32:32.399Z,8.50
2019-03-02T10:33:32.908Z,8.50
2019-03-02T10:34:32.221Z,8.50
2019-03-02T10:35:32.135Z,9.40
2019-03-02T10:36:32.494Z,8.80
2019-03-02T10:37:31.971Z,8.60
2019-03-02T10:38:31.885Z,8.80
2019-03-02T10:39:32.714Z,8.50
2019-03-02T10:40:31.722Z,8.70
2019-03-02T10:41:31.634Z,8.80
2019-03-02T10:42:32.077Z,8.80
2019-03-02T10:43:31.472Z,8.90
2019-03-02T10:44:31.386Z,8.40
2019-03-02T10:45:31.304Z,7.80
2019-03-02T10:46:31.211Z,8.00
2019-03-02T10:47:31.136Z,8.50
2019-03-02T10:48:31.048Z,7.90
2019-03-02T10:49:30.961Z,7.60
2019-03-02T10:50:30.886Z,8.00
2019-03-02T10:51:33.912Z,8.30
2019-03-02T10:52:30.713Z,7.50
2019-03-02T10:53:30.624Z,7.70
2019-03-02T10:54:31.593Z,7.90
2019-03-02T10:55:30.462Z,7.70
2019-03-02T10:56:30.374Z,7.10
2019-03-02T10:57:30.287Z,8.10
2019-03-02T10:58:30.212Z,6.90
2019-03-02T10:59:30.128Z,7.10
2019-03-02T11:00:31.275Z,7.20
2019-03-02T11:01:30.440Z,6.90
2019-03-02T11:02:29.876Z,7.30
2019-03-02T11:03:31.756Z,6.90
2019-03-02T11:04:30.307Z,6.70
2019-03-02T11:05:29.626Z,6.90
2019-03-02T11:06:29.607Z,6.60
2019-03-02T11:07:29.452Z,6.90
2019-03-02T11:08:29.364Z,6.60
2019-03-02T11:09:29.288Z,6.90
2019-03-02T11:10:29.200Z,6.90
2019-03-02T11:11:29.829Z,6.60
2019-03-02T11:12:29.038Z,6.30
2019-03-02T11:13:28.951Z,6.50
2019-03-02T11:14:31.097Z,7.00
2019-03-02T11:15:28.778Z,6.10
2019-03-02T11:16:28.704Z,6.40
2019-03-02T11:17:28.914Z,6.30
2019-03-02T11:18:30.939Z,6.20
2019-03-02T11:19:28.451Z,6.40
2019-03-02T11:20:28.368Z,6.10
2019-03-02T11:21:30.996Z,6.20
2019-03-02T11:22:28.202Z,5.90
2019-03-02T11:23:28.115Z,5.70
2019-03-02T11:24:28.040Z,5.70
2019-03-02T11:25:27.940Z,5.90
2019-03-02T11:26:27.870Z,5.90
2019-03-02T11:27:27.777Z,6.00
2019-03-02T11:28:27.690Z,5.30
2019-03-02T11:29:27.604Z,5.60
2019-03-02T11:30:27.541Z,6.00
2019-03-02T11:31:27.440Z,6.00
2019-03-02T11:32:27.352Z,6.30
2019-03-02T11:33:27.462Z,5.60
2019-03-02T11:34:30.461Z,5.90
2019-03-02T11:35:27.103Z,5.90
2019-03-02T11:36:27.029Z,5.80
2019-03-02T11:37:27.199Z,5.70
2019-03-02T11:38:26.853Z,5.80
2019-03-02T11:39:26.778Z,5.90
2019-03-02T11:40:29.540Z,5.90
2019-03-02T11:41:26.603Z,5.80
2019-03-02T11:42:26.532Z,6.00
2019-03-02T11:43:26.445Z,5.50
2019-03-02T11:44:26.366Z,5.90
2019-03-02T11:45:26.267Z,6.10
2019-03-02T11:46:26.192Z,6.20
2019-03-02T11:47:26.104Z,6.40
2019-03-02T11:48:26.018Z,6.30
2019-03-02T11:49:30.539Z,6.40
2019-03-02T11:50:25.855Z,6.00
2019-03-02T11:51:27.101Z,6.50
2019-03-02T11:52:25.679Z,6.30
2019-03-02T11:53:25.607Z,5.80
2019-03-02T11:54:28.708Z,6.00
2019-03-02T11:55:25.431Z,6.50
2019-03-02T11:56:27.309Z,5.90
2019-03-02T11:57:25.269Z,6.40
2019-03-02T11:58:25.180Z,6.30
2019-03-02T11:59:25.104Z,6.60
2019-03-02T12:00:25.018Z,6.80
2019-03-02T12:01:24.931Z,6.40
2019-03-02T12:02:24.898Z,6.40
2019-03-02T12:03:24.769Z,6.10
2019-03-02T12:04:24.680Z,6.50
2019-03-02T12:05:25.010Z,6.90
2019-03-02T12:06:24.521Z,6.40
2019-03-02T12:07:24.431Z,6.90
2019-03-02T12:08:24.345Z,6.80
2019-03-02T12:09:24.270Z,6.70
2019-03-02T12:10:24.182Z,6.70
2019-03-02T12:11:24.095Z,6.90
2019-03-02T12:12:24.021Z,6.80
2019-03-02T12:13:23.935Z,7.10
2019-03-02T12:14:23.845Z,6.50
2019-03-02T12:15:24.890Z,7.00
2019-03-02T12:16:26.426Z,6.50
2019-03-02T12:17:23.611Z,6.80
2019-03-02T12:18:23.521Z,6.70
2019-03-02T12:19:26.180Z,7.70
2019-03-02T12:20:23.347Z,7.00
2019-03-02T12:21:23.271Z,6.80
2019-03-02T12:22:23.183Z,7.10
2019-03-02T12:23:24.672Z,6.90
2019-03-02T12:24:23.262Z,6.80
2019-03-02T12:25:22.946Z,7.00
2019-03-02T12:26:22.847Z,6.80
2019-03-02T12:27:23.685Z,7.00
2019-03-02T12:28:22.683Z,6.60
2019-03-02T12:29:22.600Z,6.80
2019-03-02T12:30:25.984Z,6.50
2019-03-02T12:31:22.447Z,6.80
2019-03-02T12:32:22.347Z,7.00
2019-03-02T12:33:22.354Z,6.50
2019-03-02T12:34:22.185Z,6.70
2019-03-02T12:35:22.097Z,6.50
2019-03-02T12:36:22.010Z,6.60
2019-03-02T12:37:22.248Z,6.30
2019-03-02T12:38:21.847Z,6.90
2019-03-02T12:39:23.986Z,7.20
2019-03-02T12:40:21.688Z,6.50
2019-03-02T12:41:21.598Z,6.90
2019-03-02T12:42:21.514Z,6.70
2019-03-02T12:43:21.447Z,6.70
2019-03-02T12:44:21.644Z,6.70
2019-03-02T12:45:21.273Z,6.80
2019-03-02T12:46:21.189Z,6.80
2019-03-02T12:47:21.105Z,6.90
2019-03-02T12:48:21.011Z,7.00
2019-03-02T12:49:20.938Z,7.10
2019-03-02T12:50:23.250Z,6.80
2019-03-02T12:51:20.761Z,6.80
2019-03-02T12:52:20.686Z,6.60
2019-03-02T12:53:24.435Z,6.60
2019-03-02T12:54:20.512Z,6.70
2019-03-02T12:55:21.675Z,6.70
2019-03-02T12:56:20.350Z,6.70
2019-03-02T12:57:20.261Z,6.90
2019-03-02T12:58:23.116Z,6.70
2019-03-02T12:59:20.100Z,6.90
2019-03-02T13:00:20.013Z,6.80
2019-03-02T13:01:19.949Z,6.80
2019-03-02T13:02:19.850Z,6.50
2019-03-02T13:03:22.058Z,6.60
2019-03-02T13:04:19.689Z,6.70
2019-03-02T13:05:21.351Z,6.20
2019-03-02T13:06:19.515Z,6.90
2019-03-02T13:07:19.439Z,6.80
2019-03-02T13:08:22.802Z,6.90
2019-03-02T13:09:19.263Z,6.70
2019-03-02T13:10:19.201Z,6.60
2019-03-02T13:11:19.101Z,6.80